Time;durP1;ratioP1;P1;durP2;ratioP2;P2;SDS_P1;SDS_P2;PMS_P1;PMS_P2;Temp;Humidity;BMP_temperature;BMP_pressure;BME280_temperature;BME280_humidity;BME280_pressure;Samples;Min_cycle;Max_cycle;Signal;HPM_P1;HPM_P2
2022/05/09 00:00:09;;;;;;;6.93;2.87;;;17.10;63.90;;;;;;4961213;28;20200;-75
2022/05/09 00:02:39;;;;;;;6.83;2.27;;;17.00;64.40;;;;;;4955954;28;20193;-77
2022/05/09 00:05:10;;;;;;;5.33;2.53;;;17.00;64.60;;;;;;4962970;28;20205;-76
2022/05/09 00:07:38;;;;;;;5.90;2.20;;;16.90;64.90;;;;;;4956348;28;20863;-76
2022/05/09 00:10:08;;;;;;;8.30;2.87;;;16.90;64.60;;;;;;4964596;28;20540;-77
2022/05/09 00:12:36;;;;;;;6.23;2.70;;;16.80;64.90;;;;;;4966256;28;20209;-76
2022/05/09 00:15:06;;;;;;;8.87;2.60;;;16.80;65.60;;;;;;4965950;28;20785;-76
2022/05/09 00:17:34;;;;;;;7.00;2.20;;;16.70;65.60;;;;;;4964495;28;20229;-76
2022/05/09 00:20:05;;;;;;;9.97;2.83;;;16.70;65.60;;;;;;4964982;28;20252;-77
2022/05/09 00:22:44;;;;;;;5.57;2.13;;;16.60;65.40;;;;;;4966420;28;20277;-76
2022/05/09 00:25:12;;;;;;;7.20;2.40;;;16.60;65.60;;;;;;4964949;28;20798;-76
2022/05/09 00:27:41;;;;;;;5.77;2.37;;;16.50;66.20;;;;;;4965363;28;20565;-76
2022/05/09 00:30:10;;;;;;;7.63;2.60;;;16.50;67.50;;;;;;4964312;28;20194;-76
2022/05/09 00:32:38;;;;;;;10.30;2.90;;;16.40;66.60;;;;;;4962387;28;20197;-76
2022/05/09 00:35:09;;;;;;;4.13;2.03;;;16.40;67.20;;;;;;4965758;28;20222;-76
2022/05/09 00:37:38;;;;;;;6.20;2.27;;;16.40;67.50;;;;;;4960606;28;20193;-76
2022/05/09 00:40:08;;;;;;;3.63;1.70;;;16.30;67.90;;;;;;4959089;28;20646;-77
2022/05/09 00:42:39;;;;;;;6.73;3.07;;;16.30;68.80;;;;;;4961295;28;20205;-76
2022/05/09 00:45:09;;;;;;;5.50;2.30;;;16.20;68.60;;;;;;4963865;28;20224;-76
2022/05/09 00:47:37;;;;;;;8.20;2.70;;;16.20;68.80;;;;;;4964882;28;20588;-76
2022/05/09 00:50:09;;;;;;;5.03;2.50;;;16.20;68.70;;;;;;4959487;28;20763;-77
2022/05/09 00:52:41;;;;;;;5.63;2.53;;;16.10;68.60;;;;;;4960905;28;20934;-76
2022/05/09 00:55:13;;;;;;;4.03;2.10;;;16.10;68.60;;;;;;4954470;28;20213;-77
2022/05/09 00:57:46;;;;;;;6.87;2.70;;;16.10;68.90;;;;;;4964780;28;20197;-76
2022/05/09 01:00:18;;;;;;;4.97;2.30;;;16.10;69.20;;;;;;4963098;28;20714;-76
2022/05/09 01:02:49;;;;;;;8.07;2.50;;;16.00;70.00;;;;;;4962685;28;20198;-77
2022/05/09 01:05:19;;;;;;;6.93;2.53;;;16.00;71.10;;;;;;4963468;28;20194;-76
2022/05/09 01:07:48;;;;;;;5.37;2.50;;;15.90;70.60;;;;;;4961057;28;20198;-76
2022/05/09 01:10:17;;;;;;;6.23;2.60;;;15.90;70.90;;;;;;4958226;28;20198;-76
2022/05/09 01:12:47;;;;;;;5.17;2.43;;;15.80;71.00;;;;;;4963319;28;20190;-76
2022/05/09 01:15:17;;;;;;;4.93;2.67;;;15.80;70.30;;;;;;4964047;28;20834;-76
2022/05/09 01:17:48;;;;;;;8.00;2.40;;;15.80;70.90;;;;;;4966880;28;20194;-77
2022/05/09 01:20:17;;;;;;;4.83;2.07;;;15.80;71.40;;;;;;4963043;28;20205;-77
2022/05/09 01:22:47;;;;;;;6.23;2.20;;;15.80;71.40;;;;;;4966800;28;20202;-77
2022/05/09 01:25:17;;;;;;;7.40;2.00;;;15.70;71.40;;;;;;4957925;28;20202;-78
2022/05/09 01:27:47;;;;;;;8.00;2.40;;;15.70;71.40;;;;;;4943951;28;20197;-77
2022/05/09 01:30:20;;;;;;;4.97;2.10;;;15.60;72.40;;;;;;4965079;28;20205;-77
2022/05/09 01:32:59;;;;;;;12.03;2.93;;;15.60;72.10;;;;;;4965649;28;20193;-77
2022/05/09 01:35:33;;;;;;;4.43;2.20;;;15.60;72.00;;;;;;4964133;28;20217;-77
2022/05/09 01:38:07;;;;;;;5.50;2.33;;;15.50;72.30;;;;;;4962707;28;20697;-77
2022/05/09 01:40:35;;;;;;;6.30;2.43;;;15.50;72.10;;;;;;4955615;28;20205;-76
2022/05/09 01:43:04;;;;;;;5.97;2.30;;;15.50;71.70;;;;;;4963124;28;20198;-77
2022/05/09 01:45:32;;;;;;;5.13;2.30;;;15.50;71.60;;;;;;4963854;28;20567;-77
2022/05/09 01:50:49;;;;;;;8.30;2.80;;;15.50;72.40;;;;;;4964309;28;20196;-77
2022/05/09 01:53:21;;;;;;;6.50;2.70;;;15.50;72.20;;;;;;4965653;28;20540;-77
2022/05/09 01:55:50;;;;;;;4.67;2.50;;;15.40;72.60;;;;;;4963982;28;20228;-77
2022/05/09 01:58:18;;;;;;;5.77;2.60;;;15.40;72.40;;;;;;4959404;28;20194;-77
2022/05/09 02:00:46;;;;;;;3.47;2.00;;;15.40;72.70;;;;;;4961367;28;20190;-77
2022/05/09 02:03:15;;;;;;;8.27;2.17;;;15.40;72.70;;;;;;4958631;28;20578;-77
2022/05/09 02:05:43;;;;;;;6.93;2.67;;;15.30;72.30;;;;;;4954511;28;20201;-77
2022/05/09 02:08:12;;;;;;;7.03;2.60;;;15.40;72.20;;;;;;4962355;28;20196;-77
2022/05/09 02:10:42;;;;;;;7.03;2.83;;;15.40;72.00;;;;;;4957517;28;20198;-77
2022/05/09 02:13:10;;;;;;;7.17;2.67;;;15.30;71.80;;;;;;4961437;28;20213;-77
2022/05/09 02:15:38;;;;;;;6.33;2.60;;;15.30;71.90;;;;;;4965094;28;20213;-77
2022/05/09 02:18:07;;;;;;;7.37;2.60;;;15.30;72.30;;;;;;4961399;28;20209;-77
2022/05/09 02:20:35;;;;;;;7.93;3.13;;;15.30;72.30;;;;;;4966064;28;20687;-77
2022/05/09 02:23:04;;;;;;;6.43;2.80;;;15.30;72.30;;;;;;4961910;28;20193;-77
2022/05/09 02:25:33;;;;;;;9.90;2.63;;;15.30;72.20;;;;;;4959991;28;20194;-77
2022/05/09 02:28:06;;;;;;;9.67;2.57;;;15.30;73.10;;;;;;4959386;28;20202;-78
2022/05/09 02:30:38;;;;;;;8.17;3.20;;;15.30;72.10;;;;;;4960721;28;20212;-77
2022/05/09 02:33:08;;;;;;;5.10;2.70;;;15.30;72.00;;;;;;4963168;28;20556;-77
2022/05/09 02:35:38;;;;;;;6.47;3.23;;;15.30;71.90;;;;;;4959113;28;20967;-77
2022/05/09 02:38:07;;;;;;;9.17;3.10;;;15.30;71.90;;;;;;4959399;28;20204;-77
2022/05/09 02:40:36;;;;;;;6.53;2.90;;;15.20;71.70;;;;;;4958150;28;20205;-77
2022/05/09 02:43:06;;;;;;;7.97;2.53;;;15.30;71.80;;;;;;4962537;28;20757;-77
2022/05/09 02:45:34;;;;;;;6.20;3.03;;;15.20;71.90;;;;;;4960454;28;20186;-77
2022/05/09 02:48:03;;;;;;;6.85;3.42;;;15.30;71.90;;;;;;4958129;28;20435;-77
2022/05/09 02:50:32;;;;;;;7.00;2.93;;;15.20;72.80;;;;;;4963575;28;20208;-76
2022/05/09 02:53:00;;;;;;;8.43;2.90;;;15.20;73.00;;;;;;4960353;28;20194;-77
2022/05/09 02:55:31;;;;;;;6.67;2.90;;;15.20;73.00;;;;;;4961666;28;20233;-77
2022/05/09 02:58:00;;;;;;;6.73;3.00;;;15.20;73.20;;;;;;4961667;28;20280;-77
2022/05/09 03:00:31;;;;;;;12.77;3.00;;;15.10;73.10;;;;;;4960731;28;20819;-77
2022/05/09 03:05:47;;;;;;;7.43;3.47;;;15.10;72.90;;;;;;4963481;28;20194;-77
2022/05/09 03:08:17;;;;;;;9.37;3.20;;;15.10;73.30;;;;;;4956516;28;20659;-77
2022/05/09 03:10:46;;;;;;;6.73;3.10;;;15.00;73.00;;;;;;4960389;28;20197;-77
2022/05/09 03:13:15;;;;;;;7.50;2.90;;;15.00;73.10;;;;;;4962774;28;20243;-77
2022/05/09 03:15:47;;;;;;;6.50;2.97;;;15.00;73.10;;;;;;4959645;28;20229;-77
2022/05/09 03:18:18;;;;;;;4.70;2.67;;;15.00;73.10;;;;;;4961937;28;20641;-77
2022/05/09 03:20:47;;;;;;;8.23;3.50;;;15.00;73.30;;;;;;4960746;28;20185;-77
2022/05/09 03:23:15;;;;;;;5.13;2.83;;;15.00;73.20;;;;;;4961616;28;20772;-79
2022/05/09 03:25:44;;;;;;;7.23;2.90;;;15.00;73.30;;;;;;4962642;28;20185;-77
2022/05/09 03:28:14;;;;;;;7.60;3.33;;;15.00;73.30;;;;;;4961051;28;20197;-77
2022/05/09 03:30:45;;;;;;;8.50;3.07;;;15.00;73.30;;;;;;4958490;28;20193;-77
2022/05/09 03:33:14;;;;;;;8.33;2.87;;;15.00;73.50;;;;;;4960561;28;20212;-78
2022/05/09 03:35:43;;;;;;;7.27;2.77;;;15.00;73.50;;;;;;4961598;28;20214;-78
2022/05/09 03:38:12;;;;;;;9.20;3.40;;;15.00;73.60;;;;;;4957659;28;20568;-77
2022/05/09 03:40:40;;;;;;;8.47;3.60;;;14.90;74.00;;;;;;4957562;28;20190;-77
2022/05/09 03:43:10;;;;;;;6.97;3.17;;;14.90;74.70;;;;;;4967672;28;20200;-78
2022/05/09 03:45:39;;;;;;;8.67;3.17;;;14.90;74.70;;;;;;4964061;28;20190;-77
2022/05/09 03:48:10;;;;;;;10.50;3.67;;;14.90;74.90;;;;;;4967176;28;20213;-77
2022/05/09 03:50:38;;;;;;;7.07;3.47;;;14.90;74.60;;;;;;4967411;28;20185;-78
2022/05/09 03:53:07;;;;;;;9.20;4.07;;;14.80;74.60;;;;;;4963666;28;20202;-77
2022/05/09 03:55:35;;;;;;;12.00;3.63;;;14.80;74.40;;;;;;4963076;28;20226;-78
2022/05/09 03:58:04;;;;;;;8.20;3.60;;;14.80;74.60;;;;;;4963716;28;20209;-78
2022/05/09 04:00:35;;;;;;;10.93;3.63;;;14.90;74.40;;;;;;4963652;28;20201;-77
2022/05/09 04:03:05;;;;;;;7.83;3.80;;;14.80;74.40;;;;;;4960573;28;20193;-78
2022/05/09 04:05:35;;;;;;;8.93;3.80;;;14.90;74.70;;;;;;4967876;28;20198;-77
2022/05/09 04:08:08;;;;;;;11.17;3.87;;;14.90;74.90;;;;;;4968631;28;20217;-78
2022/05/09 04:10:40;;;;;;;11.37;4.07;;;14.90;74.70;;;;;;4965821;28;20208;-77
2022/05/09 04:13:08;;;;;;;9.60;4.13;;;14.90;74.80;;;;;;4968070;28;20201;-77
2022/05/09 04:18:26;;;;;;;10.27;4.13;;;14.90;74.80;;;;;;4965387;28;20281;-78
2022/05/09 04:20:56;;;;;;;8.13;4.30;;;15.00;75.50;;;;;;4967690;28;20204;-78
2022/05/09 04:23:24;;;;;;;10.43;4.40;;;14.90;75.30;;;;;;4968128;28;20197;-77
2022/05/09 04:25:53;;;;;;;7.83;3.57;;;15.00;75.50;;;;;;4967108;28;20204;-78
2022/05/09 04:28:23;;;;;;;11.10;4.10;;;15.00;75.50;;;;;;4964769;28;20198;-77
2022/05/09 04:30:52;;;;;;;13.13;5.37;;;15.00;75.50;;;;;;4967180;28;20201;-77
2022/05/09 04:33:21;;;;;;;10.70;4.10;;;15.00;76.20;;;;;;4967139;28;20209;-78
2022/05/09 04:35:50;;;;;;;7.63;3.57;;;15.00;75.20;;;;;;4968063;28;20762;-78
2022/05/09 04:38:22;;;;;;;10.13;3.33;;;15.10;75.30;;;;;;4966355;28;20216;-77
2022/05/09 04:40:52;;;;;;;8.73;3.83;;;15.00;75.10;;;;;;4962235;28;20727;-78
2022/05/09 04:43:21;;;;;;;7.13;3.43;;;15.10;75.00;;;;;;4965458;28;20192;-78
2022/05/09 04:45:51;;;;;;;8.00;4.00;;;15.10;75.30;;;;;;4966019;28;20201;-77
2022/05/09 04:48:20;;;;;;;9.73;4.07;;;15.10;75.30;;;;;;4964053;28;20549;-78
2022/05/09 04:50:49;;;;;;;10.23;4.33;;;15.20;75.40;;;;;;4966922;28;20201;-77
2022/05/09 04:53:19;;;;;;;9.77;3.63;;;15.20;75.30;;;;;;4966396;28;20197;-78
2022/05/09 04:55:48;;;;;;;10.03;3.37;;;15.20;75.40;;;;;;4963794;28;20194;-77
2022/05/09 04:58:18;;;;;;;8.50;3.07;;;15.30;75.70;;;;;;4963205;28;20191;-76
2022/05/09 05:00:47;;;;;;;10.73;3.63;;;15.30;75.60;;;;;;4965400;28;20198;-78
2022/05/09 05:03:16;;;;;;;10.43;3.87;;;15.30;75.50;;;;;;4963431;28;20193;-78
2022/05/09 05:05:45;;;;;;;8.67;3.50;;;15.30;75.60;;;;;;4966282;28;20204;-78
2022/05/09 05:08:14;;;;;;;7.53;3.93;;;15.40;75.50;;;;;;4965786;28;20218;-77
2022/05/09 05:10:44;;;;;;;7.53;3.57;;;15.40;75.70;;;;;;4965034;28;20189;-78
2022/05/09 05:13:13;;;;;;;12.47;3.97;;;15.40;75.70;;;;;;4963721;28;20656;-78
2022/05/09 05:15:43;;;;;;;9.77;3.87;;;15.50;75.50;;;;;;4963177;28;20249;-78
2022/05/09 05:18:12;;;;;;;9.40;4.23;;;15.50;75.50;;;;;;4964522;28;20314;-78
2022/05/09 05:20:40;;;;;;;9.30;4.20;;;15.60;75.50;;;;;;4964595;28;20200;-78
2022/05/09 05:23:11;;;;;;;8.23;3.90;;;15.60;75.20;;;;;;4965780;28;20205;-78
2022/05/09 05:25:41;;;;;;;10.00;3.80;;;15.70;75.10;;;;;;4963443;28;20198;-78
2022/05/09 05:28:11;;;;;;;14.63;3.77;;;15.70;75.00;;;;;;4957781;28;20209;-77
2022/05/09 05:30:40;;;;;;;10.70;3.80;;;15.80;74.90;;;;;;4963095;28;20558;-78
2022/05/09 05:33:08;;;;;;;6.67;3.77;;;15.90;74.70;;;;;;4964861;28;20782;-78
2022/05/09 05:35:37;;;;;;;11.27;4.67;;;15.90;74.70;;;;;;4966125;28;20202;-78
2022/05/09 05:38:05;;;;;;;8.20;3.93;;;16.00;74.60;;;;;;4964011;28;20236;-78
2022/05/09 05:40:33;;;;;;;9.13;4.40;;;16.00;74.40;;;;;;4966476;28;20206;-77
2022/05/09 05:43:02;;;;;;;11.97;4.50;;;16.10;74.50;;;;;;4965688;28;20209;-78
2022/05/09 05:45:31;;;;;;;13.67;4.40;;;16.10;74.30;;;;;;4965255;28;20205;-78
2022/05/09 05:48:00;;;;;;;8.63;3.73;;;16.20;74.30;;;;;;4953877;28;20253;-77
2022/05/09 05:50:28;;;;;;;12.97;4.17;;;16.20;74.10;;;;;;4964053;28;20206;-77
2022/05/09 05:52:56;;;;;;;11.37;3.73;;;16.30;74.10;;;;;;4964294;28;20197;-77
2022/05/09 05:55:25;;;;;;;10.57;3.47;;;16.40;73.90;;;;;;4960782;28;20198;-77
2022/05/09 05:57:53;;;;;;;11.10;4.47;;;16.40;73.70;;;;;;4963483;28;20221;-78
2022/05/09 06:00:23;;;;;;;6.93;3.30;;;16.50;73.60;;;;;;4957417;28;20202;-78
2022/05/09 06:02:53;;;;;;;9.03;4.43;;;16.60;73.60;;;;;;4961652;28;20198;-78
2022/05/09 06:05:22;;;;;;;8.90;4.13;;;16.70;73.30;;;;;;4959513;28;20194;-78
2022/05/09 06:07:55;;;;;;;8.47;4.00;;;16.70;72.90;;;;;;4961562;28;20186;-78
2022/05/09 06:10:25;;;;;;;8.83;3.60;;;16.80;72.90;;;;;;4963476;28;20222;-78
2022/05/09 06:12:54;;;;;;;11.03;4.00;;;16.70;72.70;;;;;;4965109;28;20253;-77
2022/05/09 06:15:33;;;;;;;9.13;3.93;;;16.80;72.50;;;;;;4962352;28;20197;-77
2022/05/09 06:18:05;;;;;;;8.50;3.60;;;16.80;72.40;;;;;;4960465;28;20212;-77
2022/05/09 06:20:36;;;;;;;12.60;3.93;;;16.90;72.10;;;;;;4963412;28;20229;-78
2022/05/09 06:23:09;;;;;;;5.83;3.07;;;16.90;71.90;;;;;;4959808;28;20197;-77
2022/05/09 06:25:37;;;;;;;8.30;3.57;;;17.00;71.90;;;;;;4956134;28;20198;-77
2022/05/09 06:28:07;;;;;;;8.43;3.70;;;17.00;71.80;;;;;;4953431;28;20201;-78
2022/05/09 06:30:36;;;;;;;10.30;3.50;;;17.00;71.60;;;;;;4951329;28;20686;-78
2022/05/09 06:33:07;;;;;;;7.87;3.13;;;17.10;71.60;;;;;;4960084;28;21259;-78
2022/05/09 06:35:41;;;;;;;10.33;3.93;;;17.10;71.50;;;;;;4960274;28;20709;-78
2022/05/09 06:38:15;;;;;;;10.77;3.53;;;17.10;71.40;;;;;;4961711;28;20761;-78
2022/05/09 06:40:44;;;;;;;10.57;4.30;;;17.20;71.30;;;;;;4961988;28;20216;-78
2022/05/09 06:43:12;;;;;;;11.40;3.77;;;17.30;71.20;;;;;;4964357;28;20198;-78
2022/05/09 06:45:41;;;;;;;8.93;3.27;;;17.30;71.00;;;;;;4965488;28;20678;-77
2022/05/09 06:48:11;;;;;;;7.40;3.73;;;17.40;71.00;;;;;;4966873;28;20256;-77
2022/05/09 06:50:42;;;;;;;10.50;3.47;;;17.40;70.90;;;;;;4962193;28;20198;-78
2022/05/09 06:53:12;;;;;;;9.33;3.43;;;17.40;70.70;;;;;;4962809;28;20205;-78
2022/05/09 06:55:47;;;;;;;8.97;3.13;;;17.50;70.80;;;;;;4963402;28;20185;-78
2022/05/09 06:58:22;;;;;;;8.03;3.57;;;17.50;70.70;;;;;;4963744;28;20228;-79
2022/05/09 07:00:51;;;;;;;8.80;3.17;;;17.60;70.70;;;;;;4955071;28;20248;-78
2022/05/09 07:03:22;;;;;;;7.60;3.10;;;17.70;70.50;;;;;;4958685;28;20302;-78
2022/05/09 07:05:54;;;;;;;5.77;3.40;;;17.70;70.40;;;;;;4939444;28;20621;-78
2022/05/09 07:08:23;;;;;;;7.33;3.40;;;17.80;70.30;;;;;;4962802;28;20226;-78
2022/05/09 07:10:52;;;;;;;10.13;3.57;;;17.80;70.30;;;;;;4965904;28;20204;-78
2022/05/09 07:13:41;;;;;;;8.10;3.53;;;17.90;70.20;;;;;;4957180;28;20281;-79
2022/05/09 07:16:09;;;;;;;12.33;3.70;;;18.00;70.20;;;;;;4962740;28;20595;-79
2022/05/09 07:18:39;;;;;;;14.23;3.83;;;18.10;69.90;;;;;;4960681;28;20217;-79
2022/05/09 07:21:09;;;;;;;8.67;3.63;;;18.10;69.70;;;;;;4959335;28;20230;-79
2022/05/09 07:23:42;;;;;;;7.63;3.40;;;18.20;69.70;;;;;;4963270;28;20197;-78
2022/05/09 07:26:10;;;;;;;12.40;4.00;;;18.30;69.60;;;;;;4963857;28;20232;-79
2022/05/09 07:28:40;;;;;;;8.63;3.67;;;18.40;69.40;;;;;;4962853;28;20801;-79
2022/05/09 07:31:10;;;;;;;7.50;3.00;;;18.40;69.30;;;;;;4963288;28;20201;-78
2022/05/09 07:33:40;;;;;;;9.07;3.20;;;18.60;69.10;;;;;;4963865;28;20235;-79
2022/05/09 07:36:08;;;;;;;7.83;3.27;;;18.70;68.90;;;;;;4956558;28;20205;-78
2022/05/09 07:38:36;;;;;;;9.50;3.10;;;18.80;68.80;;;;;;4957871;28;20707;-78
2022/05/09 07:41:08;;;;;;;8.77;3.00;;;18.90;68.20;;;;;;4952851;28;20202;-80
2022/05/09 07:43:39;;;;;;;9.38;3.22;;;19.00;68.00;;;;;;4949292;28;20486;-79
2022/05/09 07:46:12;;;;;;;9.50;2.67;;;19.10;67.50;;;;;;4953912;28;20320;-78
2022/05/09 07:49:05;;;;;;;12.03;2.20;;;19.20;67.30;;;;;;4950467;28;20739;-79
2022/05/09 07:51:42;;;;;;;3.73;1.70;;;19.30;66.70;;;;;;4961452;28;20197;-78
2022/05/09 07:54:10;;;;;;;9.10;2.57;;;19.40;66.40;;;;;;4962304;28;20198;-78
2022/05/09 07:56:43;;;;;;;5.03;2.10;;;19.60;66.30;;;;;;4962353;28;20651;-78
2022/05/09 07:59:12;;;;;;;3.00;1.60;;;19.60;66.10;;;;;;4959597;28;20225;-78
2022/05/09 08:01:40;;;;;;;5.77;1.60;;;19.80;66.00;;;;;;4962481;28;20198;-78
2022/05/09 08:04:10;;;;;;;3.03;1.47;;;19.80;64.70;;;;;;4963454;28;20194;-78
2022/05/09 08:06:39;;;;;;;6.60;1.53;;;19.90;64.10;;;;;;4964898;28;20282;-76
2022/05/09 08:09:07;;;;;;;3.93;1.70;;;20.00;63.80;;;;;;4962176;28;20197;-77
2022/05/09 08:11:35;;;;;;;1.93;1.20;;;20.10;62.80;;;;;;4960472;28;20194;-76
2022/05/09 08:14:04;;;;;;;6.20;1.30;;;20.20;61.70;;;;;;4958594;28;20198;-76
2022/05/09 08:16:33;;;;;;;6.97;1.73;;;20.30;60.90;;;;;;4960291;28;20201;-77
2022/05/09 08:19:02;;;;;;;7.50;1.60;;;20.40;60.40;;;;;;4962672;28;21202;-77
2022/05/09 08:21:36;;;;;;;5.47;1.30;;;20.60;60.10;;;;;;4939867;28;20209;-78
2022/05/09 08:24:05;;;;;;;3.10;1.40;;;20.70;60.00;;;;;;4957860;28;20587;-78
2022/05/09 08:26:34;;;;;;;3.70;1.37;;;20.80;59.40;;;;;;4957475;28;20196;-78
2022/05/09 08:29:02;;;;;;;4.80;1.30;;;20.90;58.80;;;;;;4962613;28;20210;-78
2022/05/09 08:31:30;;;;;;;3.97;1.40;;;20.90;56.60;;;;;;4956741;28;20206;-78
2022/05/09 08:33:59;;;;;;;5.40;1.20;;;21.10;57.20;;;;;;4962940;28;20301;-78
2022/05/09 08:39:16;;;;;;;5.67;1.70;;;21.20;56.30;;;;;;4935029;28;20229;-78
2022/05/09 08:41:59;;;;;;;2.50;1.27;;;21.30;56.70;;;;;;4965301;28;20189;-80
2022/05/09 08:45:12;;;;;;;3.75;1.73;;;21.50;56.70;;;;;;4959459;28;20235;-77
2022/05/09 08:48:03;;;;;;;7.35;1.55;;;21.60;56.50;;;;;;4903879;29;20310;-76
2022/05/09 08:50:40;;;;;;;7.88;1.80;;;21.70;56.20;;;;;;4905199;29;20204;-78
2022/05/09 08:53:10;;;;;;;3.42;1.50;;;21.80;56.20;;;;;;4942585;28;20579;-76
2022/05/09 08:55:43;;;;;;;2.35;1.20;;;21.90;55.50;;;;;;4963023;28;20201;-78
2022/05/09 08:58:19;;;;;;;5.47;1.60;;;22.00;55.20;;;;;;4957550;28;20217;-77
2022/05/09 09:00:49;;;;;;;6.32;1.60;;;22.10;55.00;;;;;;4963727;28;20193;-78
2022/05/09 09:03:26;;;;;;;1.90;1.23;;;22.20;54.80;;;;;;4957755;28;20190;-78
2022/05/09 09:05:59;;;;;;;3.72;1.02;;;22.30;54.40;;;;;;4957382;28;20194;-78
2022/05/09 09:08:37;;;;;;;3.10;1.20;;;22.40;53.80;;;;;;4961559;28;20741;-77
2022/05/09 09:11:14;;;;;;;2.25;1.23;;;22.50;51.90;;;;;;4964245;28;20301;-77
2022/05/09 09:13:54;;;;;;;2.67;1.10;;;22.60;52.50;;;;;;4964335;28;20201;-77
2022/05/09 09:16:57;;;;;;;6.22;1.20;;;22.60;51.90;;;;;;4958923;28;20193;-77
2022/05/09 09:19:43;;;;;;;3.50;1.17;;;22.70;51.40;;;;;;4958322;28;20236;-77
2022/05/09 09:22:21;;;;;;;6.75;1.70;;;22.80;50.60;;;;;;4964139;28;20201;-77
2022/05/09 09:25:21;;;;;;;3.42;1.15;;;22.80;50.90;;;;;;4959936;28;21622;-77
2022/05/09 09:27:55;;;;;;;3.55;1.20;;;22.90;50.10;;;;;;4956109;28;20187;-76
2022/05/09 09:30:26;;;;;;;5.97;1.27;;;23.00;50.40;;;;;;4954094;28;20189;-76
2022/05/09 09:32:58;;;;;;;4.75;1.20;;;23.10;50.50;;;;;;4960564;28;20190;-78
2022/05/09 09:35:36;;;;;;;4.50;1.00;;;23.20;49.70;;;;;;4957977;28;20979;-78
2022/05/09 09:38:14;;;;;;;3.83;1.10;;;23.20;48.70;;;;;;4959169;28;20272;-78
2022/05/09 09:40:43;;;;;;;5.72;1.08;;;23.30;47.90;;;;;;4966609;28;20201;-80
2022/05/09 09:43:18;;;;;;;4.43;1.00;;;23.30;47.60;;;;;;4960337;28;20734;-80
2022/05/09 09:46:01;;;;;;;5.97;1.27;;;23.40;47.60;;;;;;4960412;28;20197;-80
2022/05/09 09:48:31;;;;;;;2.63;1.20;;;23.40;47.50;;;;;;4956952;28;20202;-79
2022/05/09 09:51:04;;;;;;;4.63;1.30;;;23.40;47.50;;;;;;4961755;28;20194;-79
2022/05/09 09:53:37;;;;;;;2.90;1.20;;;23.50;47.60;;;;;;4964102;28;20660;-79
2022/05/09 09:56:09;;;;;;;3.92;1.27;;;23.50;47.50;;;;;;4967140;28;20213;-80
2022/05/09 09:58:42;;;;;;;2.95;1.00;;;23.60;47.60;;;;;;4965470;28;20597;-79
2022/05/09 10:01:14;;;;;;;4.85;1.08;;;23.60;47.50;;;;;;4959332;28;20197;-79
2022/05/09 10:03:45;;;;;;;3.17;1.38;;;23.70;46.80;;;;;;4959921;28;20880;-80
2022/05/09 10:06:17;;;;;;;4.65;1.10;;;23.80;47.00;;;;;;4955150;28;20940;-80
2022/05/09 10:08:46;;;;;;;3.78;1.08;;;23.80;47.10;;;;;;4953337;28;20194;-79
2022/05/09 10:11:23;;;;;;;3.20;1.10;;;23.90;46.80;;;;;;4957730;28;20198;-80
2022/05/09 10:13:57;;;;;;;4.63;1.15;;;24.00;46.10;;;;;;4957746;28;21645;-80
2022/05/09 10:16:30;;;;;;;2.22;0.90;;;24.00;46.40;;;;;;4955180;28;20548;-78
2022/05/09 10:19:01;;;;;;;5.50;1.25;;;24.10;46.30;;;;;;4959092;28;20220;-79
2022/05/09 10:27:30;;;;;;;7.15;1.20;;;24.30;43.40;;;;;;4958303;28;20975;-80
2022/05/09 10:30:02;;;;;;;2.38;0.82;;;24.30;43.40;;;;;;4951557;28;20203;-79
2022/05/09 10:32:40;;;;;;;4.43;0.80;;;24.40;43.50;;;;;;4955037;28;20834;-79
2022/05/09 10:35:19;;;;;;;3.33;0.90;;;24.50;43.60;;;;;;4964993;28;20288;-79
2022/05/09 10:37:53;;;;;;;3.80;1.00;;;24.60;41.80;;;;;;4964760;28;20200;-80
2022/05/09 10:40:26;;;;;;;1.70;0.80;;;24.70;41.20;;;;;;4962725;28;20210;-80
2022/05/09 10:43:01;;;;;;;2.00;0.90;;;24.80;41.50;;;;;;4965659;28;20213;-78
2022/05/09 10:45:36;;;;;;;5.45;0.80;;;24.90;41.20;;;;;;4963107;28;20584;-78
2022/05/09 10:48:11;;;;;;;3.83;0.90;;;25.00;41.40;;;;;;4962821;28;20253;-79
2022/05/09 10:50:49;;;;;;;2.10;0.95;;;25.00;41.40;;;;;;4965641;28;20887;-78
2022/05/09 10:53:26;;;;;;;3.42;0.60;;;25.00;40.80;;;;;;4966720;28;20547;-78
2022/05/09 10:56:08;;;;;;;3.38;0.70;;;25.00;40.00;;;;;;4964734;28;20197;-80
2022/05/09 10:58:44;;;;;;;2.83;0.73;;;25.10;39.70;;;;;;4966355;28;20193;-78
2022/05/09 11:01:20;;;;;;;1.63;0.60;;;25.10;39.80;;;;;;4963500;28;20318;-79
2022/05/09 11:03:49;;;;;;;3.05;1.00;;;25.20;40.20;;;;;;4959355;28;20209;-80
2022/05/09 11:06:43;;;;;;;4.32;0.70;;;25.10;39.10;;;;;;4963965;28;20197;-79
2022/05/09 11:09:29;;;;;;;2.63;0.90;;;25.20;39.50;;;;;;4955247;28;20209;-80
2022/05/09 11:12:12;;;;;;;1.75;0.80;;;25.20;39.80;;;;;;4964014;28;20594;-78
2022/05/09 11:14:50;;;;;;;6.97;1.63;;;25.20;40.00;;;;;;4958737;28;20205;-78
2022/05/09 11:17:31;;;;;;;3.78;0.95;;;25.30;40.20;;;;;;4965196;28;20787;-78
2022/05/09 11:20:10;;;;;;;3.60;1.08;;;25.30;40.00;;;;;;4960286;28;20746;-80
2022/05/09 11:22:43;;;;;;;4.05;0.85;;;25.30;40.10;;;;;;4958726;28;20197;-78
2022/05/09 11:25:49;;;;;;;2.17;1.13;;;25.40;40.40;;;;;;4962708;28;20204;-79
2022/05/09 11:28:38;;;;;;;2.63;1.10;;;25.40;40.00;;;;;;4963404;28;20201;-78
2022/05/09 11:31:13;;;;;;;3.53;0.82;;;25.40;39.40;;;;;;4963282;28;20596;-78
2022/05/09 11:33:56;;;;;;;2.03;0.80;;;25.40;39.60;;;;;;4959172;28;20915;-79
2022/05/09 11:36:39;;;;;;;3.10;1.20;;;25.50;39.90;;;;;;4953877;28;20206;-79
2022/05/09 11:39:15;;;;;;;4.82;1.08;;;25.50;40.00;;;;;;4965527;28;20849;-78
2022/05/09 11:41:54;;;;;;;1.50;0.80;;;25.50;39.70;;;;;;4956821;28;20204;-80
2022/05/09 11:44:33;;;;;;;3.33;0.93;;;25.60;39.60;;;;;;4966568;28;20197;-79
2022/05/09 11:47:29;;;;;;;5.22;0.90;;;25.60;39.70;;;;;;4957279;28;20217;-77
2022/05/09 11:50:25;;;;;;;5.85;1.00;;;25.70;39.10;;;;;;4953363;28;20198;-77
2022/05/09 11:52:55;;;;;;;2.78;1.55;;;25.70;38.50;;;;;;4947753;28;20202;-80
2022/05/09 11:55:26;;;;;;;4.28;1.83;;;25.70;38.40;;;;;;4958530;28;20313;-78
2022/05/09 11:57:58;;;;;;;2.97;0.85;;;25.70;37.60;;;;;;4952434;28;20196;-78
2022/05/09 12:00:49;;;;;;;2.03;0.85;;;25.80;38.00;;;;;;4963951;28;20250;-77
2022/05/09 12:04:00;;;;;;;3.85;1.58;;;25.90;38.30;;;;;;4957650;28;20190;-79
2022/05/09 12:06:37;;;;;;;4.07;1.27;;;25.90;38.40;;;;;;4953515;28;20214;-77
2022/05/09 12:09:15;;;;;;;3.38;0.80;;;25.90;37.40;;;;;;4958352;28;20194;-78
2022/05/09 12:11:52;;;;;;;3.75;0.98;;;26.00;37.80;;;;;;4962800;28;20208;-77
2022/05/09 12:14:50;;;;;;;1.52;0.80;;;25.90;37.70;;;;;;4953018;28;20182;-77
2022/05/09 12:17:34;;;;;;;3.13;0.90;;;25.90;36.30;;;;;;4963946;28;20190;-78
2022/05/09 12:20:07;;;;;;;1.95;1.00;;;25.90;36.80;;;;;;4959179;28;20213;-78
2022/05/09 12:22:44;;;;;;;4.35;1.00;;;25.90;37.30;;;;;;4958288;28;20201;-78
2022/05/09 12:25:29;;;;;;;2.85;0.70;;;25.90;36.00;;;;;;4959667;28;20193;-77
2022/05/09 12:28:05;;;;;;;2.55;0.82;;;25.90;35.90;;;;;;4959308;28;20190;-78
2022/05/09 12:30:50;;;;;;;1.60;0.65;;;25.90;35.90;;;;;;4963810;28;20194;-78
2022/05/09 12:33:25;;;;;;;1.75;0.90;;;25.90;36.30;;;;;;4965235;28;20194;-77
2022/05/09 12:35:57;;;;;;;3.92;1.00;;;25.90;36.50;;;;;;4966910;28;20663;-79
2022/05/09 12:38:33;;;;;;;1.55;0.93;;;25.90;36.50;;;;;;4965530;28;20312;-78
2022/05/09 12:41:05;;;;;;;4.18;1.00;;;25.90;36.40;;;;;;4964275;28;20213;-77
2022/05/09 12:43:36;;;;;;;2.00;1.02;;;25.90;36.70;;;;;;4964946;28;20198;-77
2022/05/09 12:46:07;;;;;;;1.63;1.10;;;25.90;36.60;;;;;;4961400;28;20198;-77
2022/05/09 12:48:39;;;;;;;3.90;0.90;;;25.90;36.90;;;;;;4965711;28;20288;-79
2022/05/09 12:51:10;;;;;;;2.22;0.75;;;25.90;37.00;;;;;;4961422;28;20202;-78
2022/05/09 12:53:41;;;;;;;1.88;0.80;;;26.00;36.60;;;;;;4965515;28;20198;-78
2022/05/09 12:56:18;;;;;;;3.70;1.08;;;26.00;36.60;;;;;;4962856;28;20249;-80
2022/05/09 12:58:49;;;;;;;3.10;0.90;;;26.00;36.90;;;;;;4965490;28;20194;-78
2022/05/09 13:01:21;;;;;;;2.63;1.17;;;26.10;37.20;;;;;;4960657;28;20684;-77
2022/05/09 13:04:21;;;;;;;3.70;0.98;;;26.20;37.20;;;;;;4957802;28;20686;-77
2022/05/09 13:06:52;;;;;;;1.85;1.02;;;26.20;36.90;;;;;;4956477;28;20536;-79
2022/05/09 13:09:24;;;;;;;2.80;1.15;;;26.20;36.80;;;;;;4963131;28;20196;-77
2022/05/09 13:11:56;;;;;;;1.80;0.90;;;26.30;37.20;;;;;;4965989;28;20209;-78
2022/05/09 13:14:28;;;;;;;3.10;1.10;;;26.50;37.60;;;;;;4961209;28;20193;-78
2022/05/09 13:16:59;;;;;;;4.07;1.23;;;26.60;37.40;;;;;;4962015;28;20197;-79
2022/05/09 13:19:30;;;;;;;2.17;0.82;;;26.80;37.40;;;;;;4965249;28;20794;-78
2022/05/09 13:21:59;;;;;;;3.72;0.98;;;27.10;37.60;;;;;;4965872;28;20301;-78
2022/05/09 13:24:31;;;;;;;2.35;1.17;;;27.30;37.50;;;;;;4952192;28;20205;-79
2022/05/09 13:27:02;;;;;;;2.83;1.00;;;27.40;37.20;;;;;;4957612;28;20193;-78
2022/05/09 13:29:33;;;;;;;1.63;1.02;;;27.40;37.00;;;;;;4964295;28;20197;-78